createdAt,value
2018-10-05T00:02:04.499Z,99448.00
2018-10-05T00:04:34.098Z,99441.00
2018-10-05T00:07:03.768Z,99442.00
2018-10-05T00:09:33.438Z,99445.00
2018-10-05T00:12:02.878Z,99442.00
2018-10-05T00:14:32.557Z,99444.00
2018-10-05T00:17:01.958Z,99429.00
2018-10-05T00:19:31.458Z,99430.00
2018-10-05T00:22:00.972Z,99433.00
2018-10-05T00:24:30.579Z,99426.00
2018-10-05T00:27:00.117Z,99426.00
2018-10-05T00:29:29.651Z,99426.00
2018-10-05T00:31:59.357Z,99423.00
2018-10-05T00:34:28.937Z,99421.00
2018-10-05T00:36:58.437Z,99423.00
2018-10-05T00:39:27.916Z,99416.00
2018-10-05T00:41:57.332Z,99416.00
2018-10-05T00:44:26.900Z,99419.00
2018-10-05T00:46:56.417Z,99421.00
2018-10-05T00:49:26.057Z,99412.00
2018-10-05T00:51:55.533Z,99421.00
2018-10-05T00:54:25.157Z,99416.00
2018-10-05T00:56:54.619Z,99407.00
2018-10-05T00:59:24.277Z,99408.00
2018-10-05T01:01:53.735Z,99406.00
2018-10-05T01:04:23.657Z,99414.00
2018-10-05T01:06:59.849Z,99410.00
2018-10-05T01:09:29.297Z,99411.00
2018-10-05T01:11:58.839Z,99404.00
2018-10-05T01:14:28.402Z,99402.00
2018-10-05T01:16:58.237Z,99406.00
2018-10-05T01:19:27.898Z,99407.00
2018-10-05T01:21:57.516Z,99410.00
2018-10-05T01:24:27.057Z,99405.00
2018-10-05T01:26:56.417Z,99409.00
2018-10-05T01:29:26.518Z,99416.00
2018-10-05T01:31:55.998Z,99414.00
2018-10-05T01:34:25.640Z,99417.00
2018-10-05T01:37:01.738Z,99410.00
2018-10-05T01:39:31.898Z,99403.00
2018-10-05T01:42:01.458Z,99412.00
2018-10-05T01:44:31.037Z,99399.00
2018-10-05T01:47:00.698Z,99404.00
2018-10-05T01:49:30.185Z,99398.00
2018-10-05T01:51:59.937Z,99401.00
2018-10-05T01:54:29.477Z,99406.00
2018-10-05T01:56:58.897Z,99400.00
2018-10-05T01:59:28.500Z,99399.00
2018-10-05T02:01:57.977Z,99394.00
2018-10-05T02:04:27.971Z,99397.00
2018-10-05T02:06:57.818Z,99394.00
2018-10-05T02:09:27.657Z,99394.00
2018-10-05T02:11:57.038Z,99390.00
2018-10-05T02:14:26.519Z,99377.00
2018-10-05T02:16:56.135Z,99390.00
2018-10-05T02:19:25.719Z,99381.00
2018-10-05T02:21:55.458Z,99386.00
2018-10-05T02:24:25.031Z,99381.00
2018-10-05T02:26:54.559Z,99380.00
2018-10-05T02:29:24.032Z,99379.00
2018-10-05T02:31:53.537Z,99381.00
2018-10-05T02:34:23.178Z,99381.00
2018-10-05T02:36:53.097Z,99385.00
2018-10-05T02:39:22.478Z,99374.00
2018-10-05T02:41:52.125Z,99378.00
2018-10-05T02:44:21.690Z,99374.00
2018-10-05T02:46:51.377Z,99373.00
2018-10-05T02:49:20.880Z,99374.00
2018-10-05T02:51:50.317Z,99375.00
2018-10-05T02:54:20.139Z,99370.00
2018-10-05T02:56:49.681Z,99367.00
2018-10-05T02:59:19.280Z,99367.00
2018-10-05T03:02:05.421Z,99362.00
2018-10-05T03:04:34.957Z,99365.00
2018-10-05T03:07:04.517Z,99360.00
2018-10-05T03:09:33.958Z,99362.00
2018-10-05T03:12:03.476Z,99360.00
2018-10-05T03:14:33.037Z,99350.00
2018-10-05T03:17:02.557Z,99354.00
2018-10-05T03:19:32.017Z,99348.00
2018-10-05T03:22:01.456Z,99353.00
2018-10-05T03:24:30.937Z,99359.00
2018-10-05T03:27:00.490Z,99342.00
2018-10-05T03:29:30.018Z,99340.00
2018-10-05T03:31:59.683Z,99336.00
2018-10-05T03:34:29.139Z,99339.00
2018-10-05T03:36:58.657Z,99346.00
2018-10-05T03:39:28.277Z,99343.00
2018-10-05T03:41:57.857Z,99348.00
2018-10-05T03:44:27.246Z,99347.00
2018-10-05T03:46:56.677Z,99337.00
2018-10-05T03:49:26.498Z,99338.00
2018-10-05T03:51:56.077Z,99333.00
2018-10-05T03:54:26.127Z,99332.00
2018-10-05T03:56:55.816Z,99321.00
2018-10-05T03:59:25.398Z,99327.00
2018-10-05T04:01:54.897Z,99327.00
2018-10-05T04:04:24.536Z,99332.00
2018-10-05T04:06:54.077Z,99327.00
2018-10-05T04:09:23.687Z,99325.00
2018-10-05T04:11:53.277Z,99320.00
2018-10-05T04:14:22.856Z,99324.00
2018-10-05T04:16:52.897Z,99316.00
2018-10-05T04:19:22.497Z,99325.00
2018-10-05T04:21:51.975Z,99326.00
2018-10-05T04:24:21.477Z,99333.00
2018-10-05T04:26:51.037Z,99319.00
2018-10-05T04:29:20.636Z,99328.00
2018-10-05T04:31:50.160Z,99330.00
2018-10-05T04:34:19.616Z,99342.00
2018-10-05T04:36:49.161Z,99343.00
2018-10-05T04:39:18.637Z,99333.00
2018-10-05T04:41:48.121Z,99338.00
2018-10-05T04:44:17.640Z,99349.00
2018-10-05T04:46:47.777Z,99351.00
2018-10-05T04:49:17.330Z,99348.00
2018-10-05T04:51:46.876Z,99343.00
2018-10-05T04:54:16.453Z,99356.00
2018-10-05T04:56:46.439Z,99343.00
2018-10-05T04:59:15.976Z,99335.00
2018-10-05T05:01:45.559Z,99333.00
2018-10-05T05:04:15.175Z,99332.00
2018-10-05T05:06:44.896Z,99329.00
2018-10-05T05:09:14.610Z,99325.00
2018-10-05T05:11:44.115Z,99326.00
2018-10-05T05:14:13.976Z,99334.00
2018-10-05T05:16:43.596Z,99331.00
2018-10-05T05:19:13.135Z,99335.00
2018-10-05T05:21:42.696Z,99336.00
2018-10-05T05:24:12.276Z,99339.00
2018-10-05T05:26:41.898Z,99337.00
2018-10-05T05:29:11.555Z,99340.00
2018-10-05T05:31:41.336Z,99344.00
2018-10-05T05:34:10.916Z,99353.00
2018-10-05T05:36:40.435Z,99351.00
2018-10-05T05:39:10.003Z,99352.00
2018-10-05T05:41:39.509Z,99347.00
2018-10-05T05:44:09.157Z,99354.00
2018-10-05T05:46:38.687Z,99352.00
2018-10-05T05:49:08.715Z,99364.00
2018-10-05T05:51:38.295Z,99363.00
2018-10-05T05:54:07.999Z,99359.00
2018-10-05T05:56:37.564Z,99360.00
2018-10-05T05:59:07.916Z,99358.00
2018-10-05T06:01:37.495Z,99364.00
2018-10-05T06:04:07.035Z,99363.00
2018-10-05T06:06:36.555Z,99372.00
2018-10-05T06:09:08.990Z,99374.00
2018-10-05T06:11:38.515Z,99375.00
2018-10-05T06:14:08.036Z,99379.00
2018-10-05T06:16:37.535Z,99376.00
2018-10-05T06:19:07.195Z,99374.00
2018-10-05T06:21:36.892Z,99363.00
2018-10-05T06:24:06.456Z,99369.00
2018-10-05T06:26:36.076Z,99363.00
2018-10-05T06:29:05.735Z,99369.00
2018-10-05T06:31:35.336Z,99370.00
2018-10-05T06:34:04.936Z,99368.00
2018-10-05T06:36:34.495Z,99365.00
2018-10-05T06:39:05.624Z,99363.00
2018-10-05T06:41:35.229Z,99370.00
2018-10-05T06:44:04.948Z,99369.00
2018-10-05T06:46:34.556Z,99374.00
2018-10-05T06:49:04.156Z,99374.00
2018-10-05T06:51:33.736Z,99368.00
2018-10-05T06:54:03.278Z,99370.00
2018-10-05T06:56:32.795Z,99379.00
2018-10-05T06:59:02.396Z,99380.00
2018-10-05T07:01:31.982Z,99376.00
2018-10-05T07:04:01.516Z,99376.00
2018-10-05T07:06:31.055Z,99370.00
2018-10-05T07:09:00.516Z,99360.00
2018-10-05T07:11:30.139Z,99358.00
2018-10-05T07:13:59.676Z,99363.00
2018-10-05T07:16:29.315Z,99370.00
2018-10-05T07:18:59.132Z,99352.00
2018-10-05T07:21:28.795Z,99365.00
2018-10-05T07:23:58.195Z,99366.00
2018-10-05T07:26:27.836Z,99365.00
2018-10-05T07:28:57.276Z,99362.00
2018-10-05T07:31:26.815Z,99356.00
2018-10-05T07:33:57.056Z,99358.00
2018-10-05T07:36:26.536Z,99355.00
2018-10-05T07:38:56.055Z,99362.00
2018-10-05T07:41:25.595Z,99361.00
2018-10-05T07:43:55.155Z,99367.00
2018-10-05T07:46:24.676Z,99367.00
2018-10-05T07:48:54.255Z,99356.00
2018-10-05T07:51:23.755Z,99358.00
2018-10-05T07:53:53.275Z,99374.00
2018-10-05T07:56:22.755Z,99370.00
2018-10-05T07:58:52.375Z,99364.00
2018-10-05T08:01:21.915Z,99364.00
2018-10-05T08:03:51.535Z,99370.00
2018-10-05T08:06:21.038Z,99363.00
2018-10-05T08:08:50.655Z,99358.00
2018-10-05T08:11:20.315Z,99357.00
2018-10-05T08:13:49.835Z,99349.00
2018-10-05T08:16:19.443Z,99347.00
2018-10-05T08:18:48.935Z,99345.00
2018-10-05T08:21:18.595Z,99340.00
2018-10-05T08:23:48.775Z,99341.00
2018-10-05T08:26:18.575Z,99348.00
2018-10-05T08:28:48.076Z,99345.00
2018-10-05T08:31:17.833Z,99340.00
2018-10-05T08:33:47.495Z,99340.00
2018-10-05T08:36:17.139Z,99341.00
2018-10-05T08:38:46.755Z,99338.00
2018-10-05T08:41:16.329Z,99338.00
2018-10-05T08:43:46.015Z,99339.00
2018-10-05T08:46:15.775Z,99344.00
2018-10-05T08:48:45.336Z,99337.00
2018-10-05T08:51:14.974Z,99335.00
2018-10-05T08:53:44.495Z,99338.00
2018-10-05T08:56:14.158Z,99338.00
2018-10-05T08:58:43.615Z,99332.00
2018-10-05T09:01:13.175Z,99330.00
2018-10-05T09:03:42.656Z,99328.00
2018-10-05T09:06:12.216Z,99326.00
2018-10-05T09:08:41.735Z,99318.00
2018-10-05T09:11:11.405Z,99319.00
2018-10-05T09:13:40.975Z,99314.00
2018-10-05T09:16:10.695Z,99314.00
2018-10-05T09:18:40.336Z,99316.00
2018-10-05T09:21:09.896Z,99317.00
2018-10-05T09:23:39.837Z,99312.00
2018-10-05T09:26:09.415Z,99307.00
2018-10-05T09:28:38.972Z,99307.00
2018-10-05T09:31:08.575Z,99298.00
2018-10-05T09:33:38.196Z,99292.00
2018-10-05T09:36:07.852Z,99286.00
2018-10-05T09:38:37.721Z,99281.00
2018-10-05T09:41:07.409Z,99272.00
2018-10-05T09:43:37.155Z,99259.00
2018-10-05T09:46:07.195Z,99248.00
2018-10-05T09:48:36.835Z,99254.00
2018-10-05T09:51:06.375Z,99249.00
2018-10-05T09:53:35.935Z,99253.00
2018-10-05T09:56:05.515Z,99254.00
2018-10-05T09:58:35.015Z,99255.00
2018-10-05T10:01:10.395Z,99251.00
2018-10-05T10:03:39.955Z,99251.00
2018-10-05T10:06:09.515Z,99255.00
2018-10-05T10:08:39.196Z,99240.00
2018-10-05T10:11:08.775Z,99236.00
2018-10-05T10:13:38.624Z,99240.00
2018-10-05T10:16:08.415Z,99241.00
2018-10-05T10:18:37.999Z,99227.00
2018-10-05T10:21:07.621Z,99228.00
2018-10-05T10:23:37.222Z,99234.00
2018-10-05T10:26:06.901Z,99224.00
2018-10-05T10:28:36.561Z,99220.00
2018-10-05T10:31:06.362Z,99218.00
2018-10-05T10:33:36.068Z,99209.00
2018-10-05T10:36:05.609Z,99211.00
2018-10-05T10:38:35.201Z,99213.00
2018-10-05T10:41:04.641Z,99211.00
2018-10-05T10:43:34.343Z,99216.00
2018-10-05T10:46:03.962Z,99203.00
2018-10-05T10:48:33.502Z,99201.00
2018-10-05T10:51:03.435Z,99191.00
2018-10-05T10:53:32.988Z,99184.00
2018-10-05T10:56:02.673Z,99194.00
2018-10-05T10:58:32.246Z,99193.00
2018-10-05T11:01:01.847Z,99182.00
2018-10-05T11:03:31.425Z,99179.00
2018-10-05T11:06:00.866Z,99175.00
2018-10-05T11:08:30.466Z,99171.00
2018-10-05T11:11:00.078Z,99163.00
2018-10-05T11:13:29.686Z,99154.00
2018-10-05T11:15:59.107Z,99149.00
2018-10-05T11:18:28.586Z,99143.00
2018-10-05T11:20:58.186Z,99143.00
2018-10-05T11:23:28.126Z,99133.00
2018-10-05T11:25:57.787Z,99128.00
2018-10-05T11:28:27.406Z,99122.00
2018-10-05T11:30:57.125Z,99129.00
2018-10-05T11:33:26.732Z,99126.00
2018-10-05T11:35:56.431Z,99121.00
2018-10-05T11:38:26.135Z,99121.00
2018-10-05T11:40:55.805Z,99117.00
2018-10-05T11:43:25.374Z,99112.00
2018-10-05T11:45:55.074Z,99115.00
2018-10-05T11:48:24.684Z,99102.00
2018-10-05T11:51:13.268Z,99099.00
2018-10-05T11:53:43.774Z,99101.00
2018-10-05T11:56:13.357Z,99092.00
2018-10-05T12:10:43.700Z,99066.00
2018-10-05T12:13:13.012Z,99058.00
2018-10-05T12:15:42.425Z,99055.00
2018-10-05T12:18:11.474Z,99061.00
2018-10-05T12:20:40.705Z,99054.00
2018-10-05T12:23:10.020Z,99051.00
2018-10-05T12:25:39.279Z,99053.00
2018-10-05T12:28:08.549Z,99056.00
2018-10-05T12:30:39.545Z,99054.00
2018-10-05T12:33:09.097Z,99056.00
2018-10-05T12:35:38.425Z,99053.00
2018-10-05T12:38:07.679Z,99035.00
2018-10-05T12:40:37.196Z,99047.00
2018-10-05T12:43:06.532Z,99038.00
2018-10-05T12:45:35.824Z,99041.00
2018-10-05T12:48:05.065Z,99037.00
2018-10-05T12:50:34.654Z,99030.00
2018-10-05T12:53:03.918Z,99023.00
2018-10-05T12:55:33.307Z,99030.00
2018-10-05T12:58:02.590Z,99017.00
2018-10-05T13:00:31.725Z,99011.00
2018-10-05T13:03:01.085Z,99008.00
2018-10-05T13:05:30.644Z,99008.00
2018-10-05T13:07:59.846Z,99004.00
2018-10-05T13:10:29.239Z,99004.00
2018-10-05T13:12:58.732Z,99000.00
2018-10-05T13:15:27.986Z,99005.00
2018-10-05T13:17:57.311Z,99002.00
2018-10-05T13:20:27.084Z,99005.00
2018-10-05T13:22:56.316Z,98993.00
2018-10-05T13:25:25.588Z,98997.00
2018-10-05T13:27:54.864Z,98991.00
2018-10-05T13:30:24.092Z,98993.00
2018-10-05T13:32:53.385Z,98987.00
2018-10-05T13:35:22.724Z,98980.00
2018-10-05T13:37:52.044Z,98993.00
2018-10-05T13:40:21.237Z,98981.00
2018-10-05T13:42:50.904Z,98972.00
2018-10-05T13:45:20.105Z,98968.00
2018-10-05T13:47:49.268Z,98968.00
2018-10-05T13:50:18.983Z,98965.00
2018-10-05T13:52:48.399Z,98965.00
2018-10-05T13:55:17.979Z,98966.00
2018-10-05T13:57:47.856Z,98953.00
2018-10-05T14:00:17.320Z,98953.00
2018-10-05T14:02:46.588Z,98950.00
2018-10-05T14:05:15.820Z,98950.00
2018-10-05T14:07:45.160Z,98949.00
2018-10-05T14:10:14.408Z,98944.00
2018-10-05T14:12:43.802Z,98936.00
2018-10-05T14:15:14.361Z,98947.00
2018-10-05T14:17:43.552Z,98951.00
2018-10-05T14:20:12.913Z,98935.00
2018-10-05T14:22:42.084Z,98937.00
2018-10-05T14:25:11.509Z,98934.00
2018-10-05T14:27:40.575Z,98930.00
2018-10-05T14:30:11.471Z,98922.00
2018-10-05T14:32:40.807Z,98922.00
2018-10-05T14:35:10.013Z,98925.00
2018-10-05T14:37:39.462Z,98922.00
2018-10-05T14:40:08.945Z,98908.00
2018-10-05T14:42:38.219Z,98907.00
2018-10-05T14:45:07.599Z,98911.00
2018-10-05T14:47:36.922Z,98900.00
2018-10-05T14:50:06.326Z,98889.00
2018-10-05T14:52:35.695Z,98894.00
2018-10-05T14:55:05.317Z,98896.00
2018-10-05T14:57:34.735Z,98889.00
2018-10-05T15:00:04.532Z,98885.00
2018-10-05T15:02:33.937Z,98885.00
2018-10-05T15:05:03.322Z,98881.00
2018-10-05T15:07:32.738Z,98877.00
2018-10-05T15:10:02.015Z,98887.00
2018-10-05T15:12:31.219Z,98876.00
2018-10-05T15:15:00.884Z,98879.00
2018-10-05T15:17:30.157Z,98875.00
2018-10-05T15:19:59.477Z,98876.00
2018-10-05T15:22:28.823Z,98879.00
2018-10-05T15:24:58.082Z,98878.00
2018-10-05T15:27:27.482Z,98881.00
2018-10-05T15:29:56.782Z,98873.00
2018-10-05T15:32:26.243Z,98871.00
2018-10-05T15:34:55.463Z,98870.00
2018-10-05T15:37:25.014Z,98860.00
2018-10-05T15:39:54.351Z,98863.00
2018-10-05T15:42:23.748Z,98868.00
2018-10-05T15:44:53.176Z,98856.00
2018-10-05T15:47:22.456Z,98859.00
2018-10-05T15:49:51.952Z,98853.00
2018-10-05T15:52:21.179Z,98853.00
2018-10-05T15:54:50.595Z,98859.00
2018-10-05T15:57:19.894Z,98856.00
2018-10-05T15:59:49.174Z,98854.00
2018-10-05T16:02:18.414Z,98847.00
2018-10-05T16:04:47.697Z,98839.00
2018-10-05T16:07:17.103Z,98832.00
2018-10-05T16:09:46.314Z,98838.00
2018-10-05T16:12:15.568Z,98841.00
2018-10-05T16:14:45.058Z,98831.00
2018-10-05T16:17:14.435Z,98831.00
2018-10-05T16:19:43.767Z,98839.00
2018-10-05T16:22:13.053Z,98833.00
2018-10-05T16:24:43.921Z,98831.00
2018-10-05T16:27:13.623Z,98831.00
2018-10-05T16:29:43.040Z,98822.00
2018-10-05T16:32:12.775Z,98819.00
2018-10-05T16:34:42.061Z,98820.00
2018-10-05T16:37:12.321Z,98823.00
2018-10-05T16:39:41.622Z,98823.00
2018-10-05T16:42:11.239Z,98822.00
2018-10-05T16:44:40.513Z,98813.00
2018-10-05T16:47:09.802Z,98814.00
2018-10-05T16:49:39.177Z,98809.00
2018-10-05T16:52:11.395Z,98812.00
2018-10-05T16:54:40.785Z,98808.00
2018-10-05T16:57:10.052Z,98811.00
2018-10-05T16:59:39.302Z,98815.00
2018-10-05T17:02:08.513Z,98807.00
2018-10-05T17:04:37.982Z,98805.00
2018-10-05T17:07:07.401Z,98803.00
2018-10-05T17:09:36.611Z,98807.00
2018-10-05T17:12:05.892Z,98803.00
2018-10-05T17:14:35.244Z,98801.00
2018-10-05T17:17:04.508Z,98798.00
2018-10-05T17:19:33.822Z,98806.00
2018-10-05T17:22:03.037Z,98807.00
2018-10-05T17:24:32.301Z,98807.00
2018-10-05T17:27:01.526Z,98797.00
2018-10-05T17:29:30.887Z,98808.00
2018-10-05T17:32:06.862Z,98807.00
2018-10-05T17:34:36.463Z,98802.00
2018-10-05T17:37:07.041Z,98799.00
2018-10-05T17:39:36.343Z,98796.00
2018-10-05T17:42:05.641Z,98799.00
2018-10-05T17:44:34.882Z,98795.00
2018-10-05T17:47:04.221Z,98782.00
2018-10-05T17:49:33.481Z,98780.00
2018-10-05T17:52:02.804Z,98783.00
2018-10-05T17:54:32.076Z,98777.00
2018-10-05T17:57:01.381Z,98774.00
2018-10-05T17:59:30.529Z,98782.00
2018-10-05T18:01:59.870Z,98773.00
2018-10-05T18:04:28.985Z,98775.00
2018-10-05T18:06:58.779Z,98771.00
2018-10-05T18:09:28.131Z,98771.00
2018-10-05T18:11:57.287Z,98771.00
2018-10-05T18:14:26.613Z,98764.00
2018-10-05T18:16:55.740Z,98767.00
2018-10-05T18:19:25.102Z,98772.00
2018-10-05T18:21:54.527Z,98771.00
2018-10-05T18:24:23.924Z,98764.00
2018-10-05T18:26:54.045Z,98768.00
2018-10-05T18:29:23.344Z,98774.00
2018-10-05T18:31:52.589Z,98776.00
2018-10-05T18:34:21.888Z,98763.00
2018-10-05T18:36:51.268Z,98769.00
2018-10-05T18:39:20.447Z,98761.00
2018-10-05T18:41:49.752Z,98758.00
2018-10-05T18:44:18.994Z,98754.00
2018-10-05T18:46:48.582Z,98757.00
2018-10-05T18:49:17.967Z,98759.00
2018-10-05T18:51:47.248Z,98760.00
2018-10-05T18:54:16.508Z,98755.00
2018-10-05T18:57:02.227Z,98754.00
2018-10-05T18:59:31.699Z,98762.00
2018-10-05T19:02:01.408Z,98758.00
2018-10-05T19:04:30.755Z,98759.00
2018-10-05T19:07:00.127Z,98757.00
2018-10-05T19:09:29.454Z,98756.00
2018-10-05T19:11:58.851Z,98755.00
2018-10-05T19:14:28.206Z,98753.00
2018-10-05T19:16:57.412Z,98759.00
2018-10-05T19:19:26.745Z,98747.00
2018-10-05T19:21:56.046Z,98746.00
2018-10-05T19:24:25.388Z,98734.00
2018-10-05T19:26:54.749Z,98734.00
2018-10-05T19:29:24.626Z,98729.00
2018-10-05T19:31:53.925Z,98719.00
2018-10-05T19:34:23.625Z,98722.00
2018-10-05T19:36:53.265Z,98726.00
2018-10-05T19:39:22.503Z,98724.00
2018-10-05T19:41:51.903Z,98730.00
2018-10-05T19:44:21.285Z,98724.00
2018-10-05T19:46:50.524Z,98730.00
2018-10-05T19:49:20.097Z,98728.00
2018-10-05T19:51:49.539Z,98720.00
2018-10-05T19:54:18.878Z,98721.00
2018-10-05T19:56:48.137Z,98718.00
2018-10-05T19:59:18.418Z,98724.00
2018-10-05T20:01:48.063Z,98729.00
2018-10-05T20:04:19.519Z,98727.00
2018-10-05T20:06:49.159Z,98717.00
2018-10-05T20:09:18.519Z,98728.00
2018-10-05T20:11:47.874Z,98723.00
2018-10-05T20:14:17.278Z,98718.00
2018-10-05T20:16:46.634Z,98714.00
2018-10-05T20:19:15.960Z,98719.00
2018-10-05T20:21:45.225Z,98716.00
2018-10-05T20:24:14.462Z,98714.00
2018-10-05T20:26:43.753Z,98712.00
2018-10-05T20:29:12.958Z,98714.00
2018-10-05T20:31:42.205Z,98711.00
2018-10-05T20:34:11.500Z,98714.00
2018-10-05T20:36:40.874Z,98716.00
2018-10-05T20:39:10.101Z,98715.00
2018-10-05T20:41:39.322Z,98715.00
2018-10-05T20:44:08.646Z,98706.00
2018-10-05T20:46:37.914Z,98708.00
2018-10-05T20:49:07.902Z,98711.00
2018-10-05T20:51:37.153Z,98706.00
2018-10-05T20:54:06.697Z,98717.00
2018-10-05T20:56:36.076Z,98714.00
2018-10-05T20:59:05.355Z,98706.00
2018-10-05T21:01:34.656Z,98709.00
2018-10-05T21:04:06.893Z,98716.00
2018-10-05T21:06:36.189Z,98723.00
2018-10-05T21:09:08.676Z,98716.00
2018-10-05T21:11:38.356Z,98715.00
2018-10-05T21:14:07.696Z,98710.00
2018-10-05T21:16:36.916Z,98714.00
2018-10-05T21:19:06.974Z,98706.00
2018-10-05T21:21:36.316Z,98706.00
2018-10-05T21:24:05.597Z,98709.00
2018-10-05T21:26:35.042Z,98711.00
2018-10-05T21:29:04.639Z,98711.00
2018-10-05T21:31:33.896Z,98710.00
2018-10-05T21:34:03.399Z,98692.00
2018-10-05T21:36:32.774Z,98689.00
2018-10-05T21:39:02.364Z,98700.00
2018-10-05T21:41:31.736Z,98693.00
2018-10-05T21:44:01.097Z,98696.00
2018-10-05T21:46:30.377Z,98703.00
2018-10-05T21:48:59.709Z,98713.00
2018-10-05T21:51:29.135Z,98701.00
2018-10-05T21:53:58.476Z,98697.00
2018-10-05T21:56:27.916Z,98698.00
2018-10-05T21:58:57.294Z,98690.00
2018-10-05T22:01:26.496Z,98687.00
2018-10-05T22:03:55.716Z,98685.00
2018-10-05T22:06:25.136Z,98693.00
2018-10-05T22:08:54.356Z,98701.00
2018-10-05T22:11:23.596Z,98705.00
2018-10-05T22:13:52.956Z,98701.00
2018-10-05T22:16:22.296Z,98701.00
2018-10-05T22:18:51.616Z,98698.00
2018-10-05T22:21:20.896Z,98694.00
2018-10-05T22:23:50.176Z,98699.00
2018-10-05T22:26:19.554Z,98687.00
2018-10-05T22:28:48.836Z,98686.00
2018-10-05T22:31:18.095Z,98694.00
2018-10-05T22:33:47.416Z,98686.00
2018-10-05T22:36:16.569Z,98689.00
2018-10-05T22:38:45.839Z,98693.00
2018-10-05T22:41:15.289Z,98694.00
2018-10-05T22:43:44.576Z,98685.00
2018-10-05T22:46:13.855Z,98695.00
2018-10-05T22:48:43.115Z,98697.00
2018-10-05T22:51:12.376Z,98706.00
2018-10-05T22:53:41.917Z,98705.00
2018-10-05T22:56:11.119Z,98702.00
2018-10-05T22:58:40.456Z,98705.00
2018-10-05T23:01:09.858Z,98699.00
2018-10-05T23:03:39.096Z,98691.00
2018-10-05T23:06:08.496Z,98693.00
2018-10-05T23:08:38.036Z,98696.00
2018-10-05T23:11:07.705Z,98684.00
2018-10-05T23:13:37.382Z,98692.00
2018-10-05T23:16:07.016Z,98694.00
2018-10-05T23:18:36.295Z,98691.00
2018-10-05T23:21:06.176Z,98694.00
2018-10-05T23:23:35.636Z,98688.00
2018-10-05T23:26:04.956Z,98688.00
2018-10-05T23:28:34.455Z,98694.00
2018-10-05T23:31:03.695Z,98688.00
2018-10-05T23:33:33.015Z,98691.00
2018-10-05T23:36:02.276Z,98697.00
2018-10-05T23:38:31.615Z,98692.00
2018-10-05T23:41:00.855Z,98693.00
2018-10-05T23:43:30.115Z,98688.00
2018-10-05T23:45:59.375Z,98686.00
2018-10-05T23:48:28.735Z,98683.00
2018-10-05T23:50:57.975Z,98675.00
2018-10-05T23:53:27.713Z,98664.00
2018-10-05T23:55:56.973Z,98663.00
2018-10-05T23:58:26.191Z,98671.00
